Current | Forecast
Updated: 7:00 PM JST on February 18, 2018
Observed at Ishigakijima, Japan
Temperature 70°F
Humidity 73%
Dew Point 61°F
Wind ESE at 8 mph
Pressure 30.04 in (Steady)
Conditions Partly Cloudy
Visibility 6.2 miles
UV 0 out of 16
Clouds (FEW) : 2400 ft
Yesterday's Maximum 68°F
Yesterday's Minimum 66°F approx.
Yesterday's Cooling Degree Days 2 approx.
Sunrise7:15 AM JST
Sunset6:39 PM JST
Moon Rise8:43 AM JST
Moon Set8:48 PM JST
Moon PhaseMoon Phase
Waxing Crescent
Raw METARMETAR ROIG 181000Z 12007KT 080V140 9999 FEW024 BKN/// 21/16 Q1017


Monday
. High: 80° F.
Tuesday
. High: 77° F.
Wednesday
. High: 78° F.
Thursday
. High: 79° F.
Friday
. High: 80° F.
Saturday
. High: 80° F.
Sunday
. High: 79° F.
Monday
. High: 80° F.

Units: English | Metric

Find the Weather for any City, State or Zipcode, or Country:

U.S. State List | Severe Weather | Tropical Storms | Ski Conditions
United States | Canada | Central America | South America | Asia | Europe | Australia | Africa | Islands

Weather Underground

© Copyright 2018
The Weather Company, LLC